Time;durP1;ratioP1;P1;durP2;ratioP2;P2;SDS_P1;SDS_P2;PMS_P1;PMS_P2;Temp;Humidity;BMP_temperature;BMP_pressure;BME280_temperature;BME280_humidity;BME280_pressure;Samples;Min_cycle;Max_cycle;Signal;HPM_P1;HPM_P2
2021/11/27 00:01:10;;;;;;;2.38;0.60;;;1.70;99.90;;;;;;5002990;28;20050;-67
2021/11/27 00:03:38;;;;;;;2.03;0.70;;;1.70;99.90;;;;;;5005485;28;20416;-65
2021/11/27 00:06:05;;;;;;;1.95;0.85;;;1.70;99.90;;;;;;5004861;28;20049;-64
2021/11/27 00:08:32;;;;;;;4.32;0.65;;;1.70;99.90;;;;;;5006996;28;20049;-63
2021/11/27 00:11:00;;;;;;;0.73;0.60;;;1.60;99.90;;;;;;5007545;28;20077;-64
2021/11/27 00:13:28;;;;;;;1.98;0.70;;;1.60;99.90;;;;;;5006286;28;20046;-65
2021/11/27 00:15:56;;;;;;;2.35;0.90;;;1.60;99.90;;;;;;5007337;28;20038;-65
2021/11/27 00:18:24;;;;;;;2.10;0.50;;;1.60;99.90;;;;;;5006510;28;20100;-65
2021/11/27 00:21:10;;;;;;;0.80;0.40;;;1.60;99.90;;;;;;5005473;28;20053;-66
2021/11/27 00:23:39;;;;;;;2.78;0.85;;;1.60;99.90;;;;;;4999487;28;20054;-67
2021/11/27 00:26:10;;;;;;;1.23;0.47;;;1.70;99.90;;;;;;5003523;28;20042;-66
2021/11/27 00:28:38;;;;;;;0.88;0.50;;;1.70;99.90;;;;;;5005823;28;20053;-64
2021/11/27 00:31:10;;;;;;;3.63;0.60;;;1.80;99.90;;;;;;5006724;28;20080;-68
2021/11/27 00:33:39;;;;;;;3.95;0.73;;;1.80;99.90;;;;;;5006291;28;20042;-71
2021/11/27 00:36:08;;;;;;;3.35;0.57;;;1.80;99.90;;;;;;5018536;28;20682;-64
2021/11/27 00:38:35;;;;;;;1.23;0.45;;;1.80;99.90;;;;;;5006357;28;20045;-64
2021/11/27 00:41:03;;;;;;;4.28;1.08;;;1.80;99.90;;;;;;5006679;28;20042;-63
2021/11/27 00:43:32;;;;;;;3.53;1.00;;;1.90;99.90;;;;;;5004735;28;20089;-66
2021/11/27 00:45:59;;;;;;;1.05;0.85;;;1.90;99.90;;;;;;5006021;28;20049;-64
2021/11/27 00:48:26;;;;;;;2.95;0.95;;;1.90;99.90;;;;;;5006631;28;20084;-64
2021/11/27 00:51:03;;;;;;;1.10;0.60;;;1.90;99.90;;;;;;5006330;28;20116;-65
2021/11/27 00:53:31;;;;;;;1.75;0.63;;;1.90;99.90;;;;;;5012792;28;20048;-67
2021/11/27 00:55:58;;;;;;;1.00;0.65;;;1.90;99.90;;;;;;5003159;28;20089;-66
2021/11/27 00:58:26;;;;;;;1.98;0.80;;;1.80;99.90;;;;;;5002069;28;20081;-64
2021/11/27 01:00:59;;;;;;;2.08;1.00;;;1.90;99.90;;;;;;5005837;28;20042;-66
2021/11/27 01:03:32;;;;;;;1.55;0.70;;;1.90;99.90;;;;;;5007278;28;20575;-65
2021/11/27 01:06:04;;;;;;;2.15;1.33;;;1.90;99.90;;;;;;5003823;28;20483;-65
2021/11/27 01:08:32;;;;;;;1.52;0.57;;;1.90;99.90;;;;;;5004251;28;20132;-63
2021/11/27 01:11:10;;;;;;;2.67;1.25;;;1.80;99.90;;;;;;5005126;28;20041;-66
2021/11/27 01:13:39;;;;;;;2.92;1.05;;;1.80;99.90;;;;;;5004134;28;20049;-64
2021/11/27 01:16:07;;;;;;;2.00;1.02;;;1.80;99.90;;;;;;5003848;28;20125;-67
2021/11/27 01:18:35;;;;;;;1.40;0.93;;;1.80;99.90;;;;;;5019928;28;20145;-65
2021/11/27 01:21:07;;;;;;;1.40;1.10;;;1.80;99.90;;;;;;5005026;28;20103;-63
2021/11/27 01:23:35;;;;;;;1.77;0.95;;;1.80;99.90;;;;;;5004490;28;20125;-64
2021/11/27 01:26:04;;;;;;;2.58;0.80;;;1.80;99.90;;;;;;5001775;28;20042;-65
2021/11/27 01:28:31;;;;;;;5.60;1.13;;;1.90;99.90;;;;;;5006204;28;20049;-65
2021/11/27 01:31:00;;;;;;;2.17;0.85;;;1.90;99.90;;;;;;5004989;28;20128;-67
2021/11/27 01:33:30;;;;;;;2.08;0.82;;;2.00;99.90;;;;;;5005749;28;20038;-64
2021/11/27 01:35:59;;;;;;;3.28;0.57;;;2.10;99.90;;;;;;5003984;28;20162;-63
2021/11/27 01:38:27;;;;;;;2.45;0.57;;;2.10;99.90;;;;;;5011714;28;20137;-65
2021/11/27 01:40:55;;;;;;;1.38;0.77;;;2.20;99.90;;;;;;5018379;28;20054;-65
2021/11/27 01:43:23;;;;;;;1.33;1.27;;;2.20;99.90;;;;;;5005196;28;20061;-67
2021/11/27 01:45:52;;;;;;;1.83;0.85;;;2.30;99.90;;;;;;5005561;28;20124;-64
2021/11/27 01:48:21;;;;;;;0.60;0.43;;;2.40;99.90;;;;;;5004368;28;20133;-66
2021/11/27 01:50:55;;;;;;;1.63;0.57;;;2.40;99.90;;;;;;5003949;28;20042;-67
2021/11/27 01:53:23;;;;;;;2.60;0.95;;;2.50;99.90;;;;;;5004204;28;20046;-67
2021/11/27 01:55:57;;;;;;;6.07;1.30;;;2.50;99.90;;;;;;5035199;28;20041;-64
2021/11/27 01:58:24;;;;;;;5.40;0.90;;;2.50;99.90;;;;;;5035854;28;20041;-64
2021/11/27 02:00:56;;;;;;;0.80;0.80;;;2.50;99.90;;;;;;5005056;28;20068;-65
2021/11/27 02:03:24;;;;;;;2.85;0.73;;;2.60;99.90;;;;;;5003698;28;20439;-63
2021/11/27 02:06:10;;;;;;;4.88;0.77;;;2.60;99.90;;;;;;5000148;28;20121;-64
2021/11/27 02:08:40;;;;;;;0.88;0.70;;;2.60;99.90;;;;;;5006328;28;20404;-66
2021/11/27 02:11:10;;;;;;;4.43;0.80;;;2.60;99.90;;;;;;5036050;28;20431;-63
2021/11/27 02:13:40;;;;;;;4.20;0.70;;;2.60;99.90;;;;;;5000226;28;20736;-64
2021/11/27 02:16:10;;;;;;;2.35;0.70;;;2.60;99.90;;;;;;5002879;28;20050;-64
2021/11/27 02:18:37;;;;;;;2.15;0.90;;;2.60;99.90;;;;;;5002834;28;20041;-66
2021/11/27 02:21:10;;;;;;;1.80;0.50;;;2.60;99.90;;;;;;5003522;28;20041;-62
2021/11/27 02:23:39;;;;;;;1.23;0.40;;;2.60;99.90;;;;;;5021144;28;20041;-64
2021/11/27 02:26:09;;;;;;;2.25;0.75;;;2.60;99.90;;;;;;5015886;28;20052;-63
2021/11/27 02:28:47;;;;;;;1.35;0.80;;;2.60;99.90;;;;;;4987932;28;20396;-66
2021/11/27 02:31:16;;;;;;;2.38;0.63;;;2.60;99.90;;;;;;5037085;28;20375;-67
2021/11/27 02:33:44;;;;;;;1.13;0.50;;;2.60;99.90;;;;;;5003861;28;20050;-66
2021/11/27 02:36:11;;;;;;;3.08;0.98;;;2.60;99.90;;;;;;5002846;28;20125;-65
2021/11/27 02:38:39;;;;;;;1.27;0.57;;;2.70;99.90;;;;;;5004566;28;20559;-65
2021/11/27 02:41:06;;;;;;;4.25;0.52;;;2.70;99.90;;;;;;5001779;28;20053;-64
2021/11/27 02:43:35;;;;;;;0.25;0.25;;;2.70;99.90;;;;;;5002642;28;20445;-70
2021/11/27 02:46:02;;;;;;;3.20;0.55;;;2.70;99.90;;;;;;4998711;28;20424;-67
2021/11/27 02:48:30;;;;;;;0.80;0.40;;;2.70;99.90;;;;;;5002940;28;20050;-64
2021/11/27 02:50:57;;;;;;;2.90;1.05;;;2.70;99.90;;;;;;5002974;28;20041;-66
2021/11/27 02:53:25;;;;;;;1.25;0.40;;;2.70;99.90;;;;;;5003019;28;20034;-65
2021/11/27 02:55:53;;;;;;;2.33;0.68;;;2.70;99.90;;;;;;5003195;28;20050;-69
2021/11/27 02:58:20;;;;;;;3.83;0.90;;;2.70;99.90;;;;;;5001657;28;20041;-66
2021/11/27 03:00:52;;;;;;;5.35;1.00;;;2.70;99.90;;;;;;5004047;28;20129;-70
2021/11/27 03:03:20;;;;;;;1.27;0.95;;;2.70;99.90;;;;;;5003525;28;20129;-64
2021/11/27 03:05:47;;;;;;;2.28;0.73;;;2.60;99.90;;;;;;5002917;28;20052;-64
2021/11/27 03:08:16;;;;;;;1.90;0.50;;;2.60;99.90;;;;;;5004326;28;20131;-63
2021/11/27 03:10:45;;;;;;;1.67;1.23;;;2.60;99.90;;;;;;5002865;28;20056;-66
2021/11/27 03:13:12;;;;;;;2.05;0.50;;;2.60;99.90;;;;;;5004490;28;20053;-64
2021/11/27 03:15:42;;;;;;;3.50;0.73;;;2.60;99.90;;;;;;5005377;28;20054;-63
2021/11/27 03:18:11;;;;;;;1.00;0.63;;;2.60;99.90;;;;;;5030179;28;20038;-65
2021/11/27 03:20:38;;;;;;;1.42;0.60;;;2.60;99.90;;;;;;5001982;28;20045;-69
2021/11/27 03:23:06;;;;;;;5.72;1.10;;;2.60;99.90;;;;;;5003782;28;20125;-63
2021/11/27 03:25:33;;;;;;;3.70;1.25;;;2.60;99.90;;;;;;5001836;28;20804;-68
2021/11/27 03:28:04;;;;;;;2.30;0.50;;;2.60;99.90;;;;;;5000901;28;20181;-64
2021/11/27 03:30:31;;;;;;;2.40;0.65;;;2.60;99.90;;;;;;5035455;28;20045;-64
2021/11/27 03:33:01;;;;;;;1.85;0.98;;;2.60;99.90;;;;;;5002873;28;20042;-64
2021/11/27 03:35:29;;;;;;;2.47;0.63;;;2.60;99.90;;;;;;5007672;28;20065;-64
2021/11/27 03:37:59;;;;;;;;;;;2.50;99.90;;;;;;5003824;28;20077;-65
2021/11/27 03:40:29;;;;;;;1.38;0.65;;;2.50;99.90;;;;;;5003632;28;19933;-64
2021/11/27 03:42:59;;;;;;;1.40;0.60;;;2.50;99.90;;;;;;5035352;28;20138;-66
2021/11/27 03:45:27;;;;;;;0.95;0.70;;;2.50;99.90;;;;;;5006060;28;20486;-72
2021/11/27 03:48:16;;;;;;;2.85;0.80;;;2.60;99.90;;;;;;5006415;28;20069;-67
2021/11/27 03:51:19;;;;;;;5.95;1.40;;;2.60;99.90;;;;;;4966530;28;20042;-66
2021/11/27 03:53:47;;;;;;;2.35;0.77;;;2.60;99.90;;;;;;5007503;28;20049;-63
2021/11/27 03:56:19;;;;;;;2.97;0.82;;;2.60;99.90;;;;;;5013971;28;20540;-64
2021/11/27 03:58:50;;;;;;;1.42;0.73;;;2.60;99.90;;;;;;5007047;28;20065;-63
2021/11/27 04:01:19;;;;;;;4.85;1.25;;;2.60;99.90;;;;;;5002111;28;20121;-64
2021/11/27 04:03:49;;;;;;;4.78;1.33;;;2.60;99.90;;;;;;5005080;28;20134;-63
2021/11/27 04:06:18;;;;;;;3.33;0.75;;;2.70;99.90;;;;;;5004587;28;20060;-63
2021/11/27 04:08:46;;;;;;;1.08;0.95;;;2.70;99.90;;;;;;5007748;28;20111;-64
2021/11/27 04:11:13;;;;;;;7.10;1.00;;;2.70;99.90;;;;;;5007373;28;20145;-63
2021/11/27 04:13:41;;;;;;;1.20;0.90;;;2.70;99.90;;;;;;5005945;28;20127;-63
2021/11/27 04:16:09;;;;;;;2.00;1.05;;;2.70;99.90;;;;;;5005934;28;20387;-63
2021/11/27 04:18:37;;;;;;;3.38;1.40;;;2.60;99.90;;;;;;5006259;28;20049;-63
2021/11/27 04:21:04;;;;;;;2.10;1.17;;;2.60;99.90;;;;;;5006149;28;20042;-63
2021/11/27 04:23:33;;;;;;;3.13;1.08;;;2.50;99.90;;;;;;5023214;28;20188;-63
2021/11/27 04:26:05;;;;;;;0.50;0.50;;;2.50;99.90;;;;;;5003945;28;20061;-65
2021/11/27 04:28:32;;;;;;;2.30;0.85;;;2.40;99.90;;;;;;5006215;28;20060;-64
2021/11/27 04:30:59;;;;;;;1.77;1.10;;;2.40;99.90;;;;;;5008850;28;20118;-66
2021/11/27 04:33:28;;;;;;;0.98;0.60;;;2.40;99.90;;;;;;5005491;28;20145;-64
2021/11/27 04:35:56;;;;;;;1.00;0.88;;;2.40;99.90;;;;;;5005556;28;20057;-66
2021/11/27 04:38:28;;;;;;;1.02;0.93;;;2.40;99.90;;;;;;4998489;28;20073;-64
2021/11/27 04:40:56;;;;;;;1.73;0.68;;;2.30;99.90;;;;;;5003224;28;20503;-66
2021/11/27 04:43:25;;;;;;;4.50;1.02;;;2.30;99.90;;;;;;5005504;28;20066;-64
2021/11/27 04:45:52;;;;;;;1.70;0.68;;;2.20;99.90;;;;;;5008561;28;20504;-64
2021/11/27 04:48:20;;;;;;;1.17;1.08;;;2.20;99.90;;;;;;5003473;28;20391;-63
2021/11/27 04:50:49;;;;;;;1.83;0.70;;;2.10;99.90;;;;;;5006283;28;20077;-64
2021/11/27 04:53:17;;;;;;;2.55;0.80;;;2.00;99.90;;;;;;5004066;28;20044;-64
2021/11/27 04:55:44;;;;;;;1.75;0.90;;;2.00;99.90;;;;;;5002362;28;20042;-63
2021/11/27 04:58:15;;;;;;;1.05;0.70;;;2.00;99.90;;;;;;5002420;28;20034;-65
2021/11/27 05:00:50;;;;;;;1.02;0.75;;;2.00;99.90;;;;;;5005743;28;20656;-64
2021/11/27 05:03:25;;;;;;;3.70;0.80;;;2.00;99.90;;;;;;4999167;28;20415;-64
2021/11/27 05:05:52;;;;;;;1.67;1.00;;;2.10;99.90;;;;;;5002896;28;20133;-64
2021/11/27 05:08:19;;;;;;;1.67;1.02;;;2.10;99.90;;;;;;5004993;28;20042;-63
2021/11/27 05:10:48;;;;;;;2.55;2.35;;;2.10;99.90;;;;;;5005439;28;20537;-63
2021/11/27 05:13:15;;;;;;;2.40;1.63;;;2.10;99.90;;;;;;5002515;28;20041;-63
2021/11/27 05:15:42;;;;;;;3.08;1.02;;;2.10;99.90;;;;;;5005595;28;20053;-64
2021/11/27 05:18:14;;;;;;;3.42;1.20;;;2.20;99.90;;;;;;5002931;28;20053;-63
2021/11/27 05:21:01;;;;;;;3.92;1.27;;;2.20;99.90;;;;;;5004975;28;20045;-66
2021/11/27 05:23:29;;;;;;;3.08;0.98;;;2.20;99.90;;;;;;5004951;28;20084;-66
2021/11/27 05:26:04;;;;;;;5.45;1.35;;;2.30;99.90;;;;;;5003139;28;20239;-66
2021/11/27 05:28:50;;;;;;;2.65;1.10;;;2.30;99.90;;;;;;5004231;28;20083;-64
2021/11/27 05:31:37;;;;;;;4.85;1.42;;;2.40;99.90;;;;;;5005993;28;20578;-66
2021/11/27 05:36:34;;;;;;;1.63;1.13;;;2.40;99.90;;;;;;5010310;28;20057;-66
2021/11/27 05:39:03;;;;;;;4.68;1.52;;;2.40;99.90;;;;;;5004568;28;20149;-64
2021/11/27 05:41:30;;;;;;;5.13;1.17;;;2.40;99.90;;;;;;5004743;28;20418;-67
2021/11/27 05:43:59;;;;;;;2.75;0.90;;;2.40;99.90;;;;;;5037149;28;20496;-64
2021/11/27 05:46:26;;;;;;;1.90;1.75;;;2.40;99.90;;;;;;5034228;28;20054;-66
2021/11/27 05:48:53;;;;;;;4.32;1.45;;;2.40;99.90;;;;;;5034598;28;20591;-70
2021/11/27 05:51:47;;;;;;;4.90;1.02;;;2.40;99.90;;;;;;4997253;28;20449;-66
2021/11/27 05:54:14;;;;;;;2.60;0.93;;;2.40;99.90;;;;;;5003568;28;20460;-64
2021/11/27 05:56:41;;;;;;;1.05;0.95;;;2.40;99.90;;;;;;5004376;28;20058;-63
2021/11/27 05:59:08;;;;;;;4.50;1.33;;;2.40;99.90;;;;;;5005603;28;20534;-65
2021/11/27 06:01:36;;;;;;;3.80;1.73;;;2.40;99.90;;;;;;5004462;28;20103;-63
2021/11/27 06:04:03;;;;;;;1.77;1.00;;;2.30;99.90;;;;;;5002094;28;20053;-64
2021/11/27 06:06:31;;;;;;;4.03;1.45;;;2.30;99.90;;;;;;5006918;28;20056;-64
2021/11/27 06:09:00;;;;;;;1.48;1.00;;;2.30;99.90;;;;;;5004554;28;20116;-63
2021/11/27 06:11:28;;;;;;;5.38;2.65;;;2.20;99.90;;;;;;5000304;28;20054;-66
2021/11/27 06:13:55;;;;;;;2.75;1.25;;;2.20;99.90;;;;;;5005968;28;20049;-67
2021/11/27 06:16:22;;;;;;;1.88;0.93;;;2.20;99.90;;;;;;5004486;28;20061;-64
2021/11/27 06:18:49;;;;;;;2.35;0.82;;;2.20;99.90;;;;;;5004720;28;20049;-66
2021/11/27 06:21:21;;;;;;;1.20;1.17;;;2.10;99.90;;;;;;5001953;28;20034;-63
2021/11/27 06:23:50;;;;;;;2.00;1.02;;;2.10;99.90;;;;;;5004941;28;20045;-66
2021/11/27 06:26:17;;;;;;;1.23;0.52;;;2.10;99.90;;;;;;5003354;28;20498;-63
2021/11/27 06:28:45;;;;;;;0.85;0.82;;;2.10;99.90;;;;;;5005521;28;20439;-63
2021/11/27 06:31:14;;;;;;;4.13;1.05;;;2.20;99.90;;;;;;5005440;28;20042;-63
2021/11/27 06:33:41;;;;;;;1.70;1.00;;;2.10;99.90;;;;;;5002873;28;20405;-63
2021/11/27 06:36:08;;;;;;;1.60;1.10;;;2.20;99.90;;;;;;5003544;28;20092;-66
2021/11/27 06:38:36;;;;;;;1.63;1.05;;;2.20;99.90;;;;;;5004251;28;20552;-64
2021/11/27 06:41:03;;;;;;;2.10;1.33;;;2.20;99.90;;;;;;5002414;28;20385;-63
2021/11/27 06:43:39;;;;;;;3.20;1.08;;;2.20;99.90;;;;;;5003994;28;20053;-64
2021/11/27 06:46:16;;;;;;;3.63;1.30;;;2.30;99.90;;;;;;5035629;28;20049;-64
2021/11/27 06:48:43;;;;;;;2.13;1.88;;;2.30;99.90;;;;;;5003921;28;20125;-71
2021/11/27 06:51:15;;;;;;;4.57;1.30;;;2.30;99.90;;;;;;5003552;28;20046;-64
2021/11/27 06:53:42;;;;;;;1.42;0.70;;;2.30;99.90;;;;;;5003653;28;20159;-63
2021/11/27 06:56:10;;;;;;;2.55;0.90;;;2.30;99.90;;;;;;5001529;28;20400;-66
2021/11/27 06:58:37;;;;;;;1.85;0.88;;;2.30;99.90;;;;;;5010958;28;20041;-63
2021/11/27 07:01:18;;;;;;;2.60;1.02;;;2.40;99.90;;;;;;5003648;28;20403;-64
2021/11/27 07:04:18;;;;;;;2.30;0.90;;;2.30;99.90;;;;;;5002271;28;20034;-63
2021/11/27 07:06:46;;;;;;;2.47;0.90;;;2.30;99.90;;;;;;5005489;28;20046;-63
2021/11/27 07:09:17;;;;;;;2.58;1.27;;;2.30;99.90;;;;;;5003625;28;20076;-64
2021/11/27 07:12:06;;;;;;;3.28;0.93;;;2.30;99.90;;;;;;4999399;28;20037;-63
2021/11/27 07:14:33;;;;;;;3.20;1.23;;;2.30;99.90;;;;;;4997049;28;20046;-64
2021/11/27 07:17:00;;;;;;;2.90;0.77;;;2.30;99.90;;;;;;5004187;28;20104;-62
2021/11/27 07:19:27;;;;;;;1.35;1.00;;;2.30;99.90;;;;;;5004685;28;20096;-66
2021/11/27 07:21:54;;;;;;;1.05;0.70;;;2.30;99.90;;;;;;5002870;28;20049;-62
2021/11/27 07:24:21;;;;;;;4.63;1.30;;;2.30;99.90;;;;;;5001000;28;20601;-64
2021/11/27 07:26:48;;;;;;;1.05;0.90;;;2.30;99.90;;;;;;5002960;28;20723;-63
2021/11/27 07:29:15;;;;;;;3.45;0.90;;;2.30;99.90;;;;;;5003214;28;20042;-63
2021/11/27 07:31:47;;;;;;;1.45;0.80;;;2.30;99.90;;;;;;5000922;28;20057;-63
2021/11/27 07:34:14;;;;;;;0.82;0.73;;;2.30;99.90;;;;;;5003311;28;20476;-63
2021/11/27 07:36:41;;;;;;;0.80;0.80;;;2.30;99.90;;;;;;5004470;28;20049;-65
2021/11/27 07:39:09;;;;;;;2.03;1.08;;;2.30;99.90;;;;;;5003714;28;20103;-63
2021/11/27 07:41:37;;;;;;;1.05;0.63;;;2.30;99.90;;;;;;5003429;28;20046;-68
2021/11/27 07:44:10;;;;;;;3.03;0.85;;;2.30;99.90;;;;;;4998188;28;20058;-77
2021/11/27 07:47:12;;;;;;;2.00;1.60;;;2.30;99.90;;;;;;4979462;28;20074;-65
2021/11/27 07:50:04;;;;;;;1.40;0.80;;;2.30;99.90;;;;;;4993674;28;20038;-64
2021/11/27 07:52:50;;;;;;;1.50;0.73;;;2.30;99.90;;;;;;5002797;28;20048;-64
2021/11/27 07:55:17;;;;;;;0.93;0.93;;;2.30;99.90;;;;;;5002510;28;20047;-66
2021/11/27 07:57:44;;;;;;;1.38;1.27;;;2.30;99.90;;;;;;5002096;28;20050;-67
2021/11/27 08:00:11;;;;;;;1.05;0.60;;;2.30;99.90;;;;;;4997439;28;20046;-69
2021/11/27 08:02:42;;;;;;;2.72;0.70;;;2.30;99.90;;;;;;5009373;28;20588;-65
2021/11/27 08:05:09;;;;;;;1.33;0.85;;;2.30;99.90;;;;;;5004438;28;20050;-66
2021/11/27 08:07:37;;;;;;;2.50;0.77;;;2.20;99.90;;;;;;5002382;28;20042;-63
2021/11/27 08:10:08;;;;;;;6.35;1.50;;;2.20;99.90;;;;;;5002616;28;20414;-63
2021/11/27 08:12:35;;;;;;;1.30;1.17;;;2.20;99.90;;;;;;5001713;28;20052;-63
2021/11/27 08:15:04;;;;;;;1.20;0.75;;;2.20;99.90;;;;;;5002957;28;20038;-66
2021/11/27 08:17:31;;;;;;;1.10;1.00;;;2.20;99.90;;;;;;5003843;28;20054;-64
2021/11/27 08:19:58;;;;;;;3.30;1.10;;;2.20;99.90;;;;;;5001940;28;20038;-64
2021/11/27 08:22:25;;;;;;;9.52;1.38;;;2.20;99.90;;;;;;5001058;28;20042;-68
2021/11/27 08:24:52;;;;;;;2.78;0.88;;;2.20;99.90;;;;;;5003763;28;20123;-63
2021/11/27 08:27:20;;;;;;;1.73;0.98;;;2.30;99.90;;;;;;5005922;28;20046;-68
2021/11/27 08:29:47;;;;;;;4.15;1.75;;;2.20;99.90;;;;;;5006225;28;20104;-66
2021/11/27 08:32:14;;;;;;;1.40;0.90;;;2.20;99.90;;;;;;5001311;28;20100;-63
2021/11/27 08:34:41;;;;;;;1.45;0.75;;;2.20;99.90;;;;;;5006899;28;20072;-63
2021/11/27 08:37:08;;;;;;;2.25;0.90;;;2.30;99.90;;;;;;5005282;28;20132;-64
2021/11/27 08:39:36;;;;;;;1.30;0.82;;;2.30;99.90;;;;;;5006141;28;20076;-64
2021/11/27 08:42:03;;;;;;;3.50;1.15;;;2.20;99.90;;;;;;5005191;28;20077;-64
2021/11/27 08:44:30;;;;;;;1.30;1.20;;;2.20;99.90;;;;;;5004363;28;20053;-63
2021/11/27 08:46:58;;;;;;;2.40;0.70;;;2.20;99.90;;;;;;5006818;28;20448;-66
2021/11/27 08:49:25;;;;;;;0.60;0.60;;;2.30;99.90;;;;;;5006539;28;20053;-63
2021/11/27 08:51:52;;;;;;;1.88;0.68;;;2.30;99.90;;;;;;5005585;28;20057;-65
2021/11/27 08:54:19;;;;;;;1.77;1.27;;;2.30;99.90;;;;;;5004213;28;20046;-70
2021/11/27 08:56:46;;;;;;;1.38;1.17;;;2.30;99.90;;;;;;5004149;28;20476;-63
2021/11/27 08:59:13;;;;;;;1.25;0.80;;;2.30;99.90;;;;;;5005900;28;20620;-67
2021/11/27 09:01:41;;;;;;;2.75;0.88;;;2.40;99.90;;;;;;5005962;28;20133;-65
2021/11/27 09:04:08;;;;;;;1.10;0.77;;;2.40;99.90;;;;;;5001373;28;20515;-63
2021/11/27 09:06:36;;;;;;;1.83;0.75;;;2.40;99.90;;;;;;5005471;28;20046;-65
2021/11/27 09:09:04;;;;;;;1.15;1.05;;;2.40;99.90;;;;;;5004077;28;20069;-64
2021/11/27 09:11:33;;;;;;;2.47;0.82;;;2.40;99.90;;;;;;5004892;28;20054;-64
2021/11/27 09:14:01;;;;;;;1.92;0.82;;;2.50;99.90;;;;;;5004747;28;20476;-64
2021/11/27 09:16:28;;;;;;;0.82;0.63;;;2.50;99.90;;;;;;5004924;28;20045;-66
2021/11/27 09:19:03;;;;;;;0.95;0.70;;;2.50;99.90;;;;;;5006080;28;20468;-64
2021/11/27 09:21:31;;;;;;;1.77;0.57;;;2.50;99.90;;;;;;5003669;28;20611;-64
2021/11/27 09:23:59;;;;;;;1.17;0.65;;;2.50;99.90;;;;;;5002216;28;20492;-67
2021/11/27 09:26:26;;;;;;;1.27;0.68;;;2.50;99.90;;;;;;5001977;28;20046;-65
2021/11/27 09:28:53;;;;;;;4.05;1.30;;;2.50;99.90;;;;;;5002422;28;20408;-67
2021/11/27 09:31:21;;;;;;;1.17;0.77;;;2.50;99.90;;;;;;5004418;28;20199;-67
2021/11/27 09:33:48;;;;;;;4.43;1.17;;;2.60;99.90;;;;;;5005028;28;20045;-65
2021/11/27 09:36:20;;;;;;;3.40;1.05;;;2.60;99.90;;;;;;4998813;28;20052;-63
2021/11/27 09:38:48;;;;;;;3.03;1.25;;;2.60;99.90;;;;;;5004561;28;20053;-68
2021/11/27 09:41:25;;;;;;;3.63;1.05;;;2.60;99.90;;;;;;5005194;28;20069;-64
2021/11/27 09:43:58;;;;;;;3.97;0.63;;;2.60;99.90;;;;;;5004711;28;20054;-63
2021/11/27 09:46:27;;;;;;;0.98;0.90;;;2.70;99.90;;;;;;5000874;28;20057;-71
2021/11/27 09:48:57;;;;;;;0.90;0.75;;;2.70;99.90;;;;;;5004570;28;20050;-67
2021/11/27 09:51:28;;;;;;;3.42;1.00;;;2.70;99.90;;;;;;5003026;28;20050;-65
2021/11/27 09:53:56;;;;;;;2.03;1.80;;;2.70;99.90;;;;;;5005815;28;20164;-64
2021/11/27 09:56:25;;;;;;;2.22;1.13;;;2.70;99.90;;;;;;4992343;28;20205;-63
2021/11/27 09:58:54;;;;;;;0.95;0.70;;;2.70;99.90;;;;;;5004982;28;20232;-65
2021/11/27 10:01:35;;;;;;;2.97;1.00;;;2.70;99.90;;;;;;5004753;28;20100;-62
2021/11/27 10:04:05;;;;;;;1.55;1.20;;;2.80;99.90;;;;;;5007035;28;20148;-65
2021/11/27 10:06:39;;;;;;;4.35;1.20;;;2.80;99.90;;;;;;5000650;28;20069;-64
2021/11/27 10:09:24;;;;;;;2.78;1.20;;;2.80;99.90;;;;;;5003327;28;20038;-62
2021/11/27 10:11:53;;;;;;;2.78;0.93;;;2.80;99.90;;;;;;5005859;28;20771;-64
2021/11/27 10:14:21;;;;;;;0.88;0.70;;;2.80;99.90;;;;;;5003274;28;20183;-63
2021/11/27 10:16:57;;;;;;;1.27;1.17;;;2.80;99.90;;;;;;5003408;28;20124;-67
2021/11/27 10:19:46;;;;;;;4.22;1.23;;;2.80;99.90;;;;;;5005882;28;20080;-63
2021/11/27 10:22:17;;;;;;;1.30;1.20;;;2.80;99.90;;;;;;5003754;28;20049;-63
2021/11/27 10:24:47;;;;;;;1.77;1.67;;;2.80;99.90;;;;;;5004810;28;21762;-63
2021/11/27 10:27:20;;;;;;;2.30;1.63;;;2.80;99.90;;;;;;5009361;28;20045;-63
2021/11/27 10:30:09;;;;;;;2.13;1.60;;;2.90;99.90;;;;;;5004700;28;20100;-63
2021/11/27 10:32:42;;;;;;;2.00;1.90;;;2.80;99.90;;;;;;5001141;28;20053;-64
2021/11/27 10:35:16;;;;;;;6.63;2.08;;;2.90;99.90;;;;;;5004003;28;20730;-69
2021/11/27 10:37:47;;;;;;;2.45;1.60;;;2.90;99.90;;;;;;5006097;28;20046;-63
2021/11/27 10:40:29;;;;;;;3.33;2.40;;;2.90;99.90;;;;;;5001303;28;20115;-63
2021/11/27 10:43:06;;;;;;;3.10;2.40;;;2.90;99.90;;;;;;5002289;28;20507;-66
2021/11/27 10:45:36;;;;;;;3.45;2.30;;;2.90;99.90;;;;;;5003839;28;20084;-65
2021/11/27 10:48:19;;;;;;;2.88;2.40;;;2.90;99.90;;;;;;5002520;28;20141;-66
2021/11/27 10:50:52;;;;;;;2.50;2.13;;;2.90;99.90;;;;;;5003679;28;20118;-65
2021/11/27 10:53:21;;;;;;;3.25;2.75;;;2.90;99.90;;;;;;5003770;28;20372;-69
2021/11/27 10:55:49;;;;;;;2.13;1.92;;;2.90;99.90;;;;;;5002596;28;20116;-64
2021/11/27 10:58:17;;;;;;;2.60;2.22;;;2.90;99.90;;;;;;5002596;28;20561;-63
2021/11/27 11:00:47;;;;;;;2.85;2.30;;;3.00;99.90;;;;;;5001309;28;20077;-63
2021/11/27 11:03:29;;;;;;;2.53;2.35;;;3.00;99.90;;;;;;5003766;28;20057;-66
2021/11/27 11:05:59;;;;;;;2.97;2.50;;;3.00;99.90;;;;;;5002711;28;20076;-64
2021/11/27 11:08:37;;;;;;;4.20;2.50;;;3.00;99.90;;;;;;5000880;28;20443;-68
2021/11/27 11:11:25;;;;;;;3.35;3.05;;;2.90;99.90;;;;;;5002623;28;20279;-65
2021/11/27 11:13:58;;;;;;;2.60;2.40;;;3.00;99.90;;;;;;5001462;28;20048;-63
2021/11/27 11:16:33;;;;;;;4.82;2.60;;;3.00;99.90;;;;;;5003187;28;20046;-64
2021/11/27 11:19:20;;;;;;;3.88;2.95;;;3.00;99.90;;;;;;5004395;28;20053;-64
2021/11/27 11:22:07;;;;;;;2.60;2.40;;;3.00;99.90;;;;;;5004943;28;20042;-63
2021/11/27 11:24:35;;;;;;;3.30;3.03;;;3.10;99.90;;;;;;5004801;28;20048;-63
2021/11/27 11:27:07;;;;;;;2.78;2.55;;;3.10;99.90;;;;;;5004661;28;20056;-65
2021/11/27 11:29:49;;;;;;;4.45;2.72;;;3.10;99.90;;;;;;5004168;28;20048;-63
2021/11/27 11:32:27;;;;;;;3.63;3.30;;;3.10;99.90;;;;;;5001511;28;20061;-63
2021/11/27 11:34:55;;;;;;;4.30;2.60;;;3.10;99.90;;;;;;5002423;28;20360;-64
2021/11/27 11:37:24;;;;;;;3.92;3.30;;;3.10;99.90;;;;;;5005645;28;20468;-64
2021/11/27 11:39:52;;;;;;;3.63;3.13;;;3.10;99.90;;;;;;5003637;28;20037;-63
2021/11/27 11:42:25;;;;;;;3.47;2.58;;;3.10;99.90;;;;;;5001900;28;20713;-63
2021/11/27 11:44:56;;;;;;;3.20;2.58;;;3.10;99.90;;;;;;5003757;28;20121;-63
2021/11/27 11:47:24;;;;;;;3.03;2.53;;;3.10;99.90;;;;;;5003122;28;20129;-64
2021/11/27 11:49:57;;;;;;;2.72;2.53;;;3.10;99.90;;;;;;5006007;28;20111;-63
2021/11/27 11:52:56;;;;;;;3.78;2.70;;;3.10;99.90;;;;;;5003075;28;20736;-63
2021/11/27 11:55:23;;;;;;;4.30;2.88;;;3.10;99.90;;;;;;5001468;28;20046;-63
2021/11/27 11:57:58;;;;;;;3.00;2.80;;;3.10;99.90;;;;;;5004952;28;20064;-70
2021/11/27 12:00:36;;;;;;;3.22;2.40;;;3.10;99.90;;;;;;5006047;28;20076;-64
2021/11/27 12:03:10;;;;;;;5.00;3.03;;;3.10;99.90;;;;;;5007014;28;20092;-65
2021/11/27 12:05:55;;;;;;;3.28;2.97;;;3.10;99.90;;;;;;5007441;28;20049;-64
2021/11/27 12:08:48;;;;;;;3.55;3.00;;;3.10;99.90;;;;;;5005606;28;20054;-64
2021/11/27 12:11:47;;;;;;;2.83;2.63;;;3.00;99.90;;;;;;5007909;28;20467;-65
2021/11/27 12:14:24;;;;;;;3.30;3.00;;;3.00;99.90;;;;;;5002931;28;20032;-65
2021/11/27 12:17:14;;;;;;;3.08;2.88;;;3.10;99.90;;;;;;5007460;28;20038;-64
2021/11/27 12:19:44;;;;;;;3.58;3.30;;;3.00;99.90;;;;;;4999417;28;20853;-68
2021/11/27 12:22:23;;;;;;;3.20;2.97;;;3.00;99.90;;;;;;5005229;28;20053;-62
2021/11/27 12:25:08;;;;;;;3.80;3.50;;;3.00;99.90;;;;;;5002673;28;20045;-62
2021/11/27 12:28:08;;;;;;;3.28;2.97;;;3.00;99.90;;;;;;5004977;28;20252;-62
2021/11/27 12:30:41;;;;;;;3.00;2.80;;;3.00;99.90;;;;;;5003241;28;20450;-63
2021/11/27 12:33:47;;;;;;;3.58;3.10;;;3.00;99.90;;;;;;5005883;28;20044;-62
2021/11/27 12:36:28;;;;;;;3.25;2.95;;;3.00;99.90;;;;;;5004126;28;20046;-63
2021/11/27 12:38:58;;;;;;;3.10;2.90;;;3.00;99.90;;;;;;5000401;28;20100;-62
2021/11/27 12:41:35;;;;;;;4.00;3.10;;;3.00;99.90;;;;;;5006962;28;20539;-64
2021/11/27 12:44:28;;;;;;;4.50;3.42;;;3.10;99.90;;;;;;5004160;28;20104;-68
2021/11/27 12:47:01;;;;;;;4.07;3.67;;;3.10;99.90;;;;;;5006613;28;20042;-64
2021/11/27 12:49:31;;;;;;;7.22;4.00;;;3.00;99.90;;;;;;5007531;28;20486;-63
2021/11/27 12:52:10;;;;;;;2.92;2.53;;;3.00;99.90;;;;;;5004879;28;20054;-68
2021/11/27 12:54:38;;;;;;;4.40;2.75;;;3.10;99.90;;;;;;5004149;28;20052;-62
2021/11/27 12:57:05;;;;;;;4.22;3.13;;;3.00;99.90;;;;;;5004953;28;20108;-62
2021/11/27 12:59:33;;;;;;;3.05;2.38;;;3.10;99.90;;;;;;5006353;28;20392;-65
2021/11/27 13:02:00;;;;;;;3.28;2.90;;;3.00;99.90;;;;;;5007181;28;20427;-64
2021/11/27 13:04:37;;;;;;;4.05;3.60;;;3.10;99.90;;;;;;5006872;28;20052;-64
2021/11/27 13:07:04;;;;;;;3.00;2.65;;;3.00;99.90;;;;;;5005400;28;20049;-63
2021/11/27 13:09:31;;;;;;;2.95;1.88;;;3.00;99.90;;;;;;4998711;28;20038;-65
2021/11/27 13:11:59;;;;;;;4.43;2.38;;;3.00;99.90;;;;;;5007346;28;20129;-65
2021/11/27 13:14:32;;;;;;;3.03;2.60;;;3.00;99.90;;;;;;5003602;28;20046;-67
2021/11/27 13:17:03;;;;;;;3.28;2.50;;;3.00;99.90;;;;;;5007034;28;20046;-62
2021/11/27 13:19:32;;;;;;;3.05;2.80;;;3.10;99.90;;;;;;5006452;28;20049;-65
2021/11/27 13:22:04;;;;;;;3.10;2.53;;;3.00;99.90;;;;;;5001002;28;20440;-67